createdAt,value
2023-05-05T00:00:25.857Z,5.67
2023-05-05T00:01:27.762Z,5.89
2023-05-05T00:02:29.729Z,5.76
2023-05-05T00:03:31.601Z,6.15
2023-05-05T00:04:33.488Z,6.63
2023-05-05T00:05:35.296Z,5.89
2023-05-05T00:06:37.078Z,5.84
2023-05-05T00:07:38.919Z,6.05
2023-05-05T00:08:41.821Z,5.72
2023-05-05T00:09:43.636Z,5.60
2023-05-05T00:10:45.427Z,6.09
2023-05-05T00:11:47.218Z,6.13
2023-05-05T00:12:49.075Z,5.57
2023-05-05T00:13:50.839Z,5.95
2023-05-05T00:14:52.640Z,5.78
2023-05-05T00:15:54.445Z,6.76
2023-05-05T00:16:56.508Z,5.69
2023-05-05T00:17:58.430Z,6.37
2023-05-05T00:19:00.299Z,5.95
2023-05-05T00:20:02.082Z,6.61
2023-05-05T00:21:03.875Z,6.27
2023-05-05T00:22:05.697Z,6.77
2023-05-05T00:23:07.534Z,6.37
2023-05-05T00:24:09.336Z,6.54
2023-05-05T00:25:11.138Z,6.12
2023-05-05T00:26:13.259Z,6.85
2023-05-05T00:27:15.040Z,6.06
2023-05-05T00:28:16.859Z,6.36
2023-05-05T00:29:18.636Z,6.52
2023-05-05T00:30:20.428Z,6.19
2023-05-05T00:31:22.290Z,6.18
2023-05-05T00:32:24.190Z,6.61
2023-05-05T00:33:26.063Z,7.36
2023-05-05T00:34:27.867Z,6.01
2023-05-05T00:35:29.671Z,7.03
2023-05-05T00:36:31.574Z,6.39
2023-05-05T00:37:33.371Z,6.57
2023-05-05T00:38:35.192Z,6.15
2023-05-05T00:39:37.003Z,6.21
2023-05-05T00:40:38.803Z,6.50
2023-05-05T00:41:40.589Z,6.21
2023-05-05T00:42:42.387Z,6.23
2023-05-05T00:43:44.203Z,6.28
2023-05-05T00:44:46.024Z,6.77
2023-05-05T00:45:48.114Z,6.76
2023-05-05T00:46:49.939Z,5.98
2023-05-05T00:47:51.782Z,6.43
2023-05-05T00:48:53.710Z,6.38
2023-05-05T00:49:55.610Z,7.15
2023-05-05T00:50:57.405Z,6.18
2023-05-05T00:51:59.205Z,6.67
2023-05-05T00:53:01.031Z,6.35
2023-05-05T00:54:02.807Z,6.28
2023-05-05T00:55:04.606Z,6.42
2023-05-05T00:56:06.517Z,6.40
2023-05-05T00:57:08.310Z,6.18
2023-05-05T00:58:10.151Z,6.18
2023-05-05T00:59:11.908Z,5.96
2023-05-05T01:00:13.823Z,6.41
2023-05-05T01:01:15.690Z,6.05
2023-05-05T01:02:17.533Z,6.15
2023-05-05T01:03:19.415Z,5.95
2023-05-05T01:04:21.316Z,6.25
2023-05-05T01:05:23.118Z,6.32
2023-05-05T01:06:24.921Z,6.47
2023-05-05T01:07:26.721Z,5.54
2023-05-05T01:08:28.562Z,5.85
2023-05-05T01:09:30.348Z,5.79
2023-05-05T01:10:33.294Z,6.11
2023-05-05T01:11:35.087Z,5.74
2023-05-05T01:12:36.903Z,6.35
2023-05-05T01:13:38.733Z,5.89
2023-05-05T01:14:40.536Z,6.07
2023-05-05T01:15:42.442Z,6.47
2023-05-05T01:16:44.368Z,6.37
2023-05-05T01:17:46.204Z,5.86
2023-05-05T01:18:48.089Z,5.65
2023-05-05T01:19:49.877Z,5.72
2023-05-05T01:20:51.676Z,6.13
2023-05-05T01:21:53.514Z,5.73
2023-05-05T01:22:55.307Z,5.87
2023-05-05T01:23:57.137Z,5.82
2023-05-05T01:24:58.831Z,6.05
2023-05-05T01:26:00.631Z,6.43
2023-05-05T01:27:02.447Z,6.72
2023-05-05T01:28:04.252Z,8.43
2023-05-05T01:29:06.349Z,9.54
2023-05-05T01:30:08.704Z,9.85
2023-05-05T01:31:10.701Z,11.15
2023-05-05T01:32:12.577Z,12.63
2023-05-05T01:33:14.389Z,13.56
2023-05-05T01:34:16.213Z,12.27
2023-05-05T01:35:18.015Z,12.12
2023-05-05T01:36:19.914Z,11.87
2023-05-05T01:37:21.706Z,10.74
2023-05-05T01:38:23.566Z,9.61
2023-05-05T01:39:25.391Z,8.89
2023-05-05T01:40:27.177Z,9.53
2023-05-05T01:41:29.002Z,9.27
2023-05-05T01:42:30.826Z,8.99
2023-05-05T01:43:32.598Z,8.48
2023-05-05T01:44:34.447Z,8.43
2023-05-05T01:45:36.184Z,7.45
2023-05-05T01:46:38.134Z,8.05
2023-05-05T01:47:39.941Z,7.73
2023-05-05T01:48:42.339Z,7.65
2023-05-05T01:49:44.261Z,6.94
2023-05-05T01:50:46.064Z,7.57
2023-05-05T01:51:47.913Z,7.41
2023-05-05T01:52:49.688Z,6.75
2023-05-05T01:53:51.487Z,6.83
2023-05-05T01:54:53.306Z,6.20
2023-05-05T01:55:55.122Z,6.94
2023-05-05T01:56:56.904Z,6.56
2023-05-05T01:57:58.737Z,7.13
2023-05-05T01:59:00.511Z,7.89
2023-05-05T02:00:02.402Z,7.01
2023-05-05T02:01:04.209Z,6.86
2023-05-05T02:02:06.109Z,7.01
2023-05-05T02:03:07.981Z,7.19
2023-05-05T02:04:10.099Z,6.61
2023-05-05T02:05:11.935Z,6.89
2023-05-05T02:06:13.739Z,7.99
2023-05-05T02:07:15.527Z,13.00
2023-05-05T02:08:17.316Z,21.56
2023-05-05T02:09:19.123Z,29.91
2023-05-05T02:10:20.978Z,37.99
2023-05-05T02:11:22.779Z,40.46
2023-05-05T02:12:24.564Z,37.97
2023-05-05T02:13:26.388Z,35.63
2023-05-05T02:14:28.159Z,24.33
2023-05-05T02:15:30.038Z,17.30
2023-05-05T02:16:31.881Z,13.41
2023-05-05T02:17:33.705Z,11.02
2023-05-05T02:18:35.466Z,10.21
2023-05-05T02:19:37.266Z,9.82
2023-05-05T02:20:39.250Z,10.30
2023-05-05T02:21:40.951Z,9.63
2023-05-05T02:22:45.362Z,8.82
2023-05-05T02:23:47.512Z,9.22
2023-05-05T02:24:49.318Z,8.79
2023-05-05T02:25:51.143Z,8.56
2023-05-05T02:26:52.929Z,8.55
2023-05-05T02:27:54.738Z,8.07
2023-05-05T02:28:56.514Z,7.47
2023-05-05T02:29:58.318Z,7.66
2023-05-05T02:31:00.216Z,8.29
2023-05-05T02:32:02.133Z,7.73
2023-05-05T02:33:03.974Z,8.03
2023-05-05T02:34:05.826Z,8.80
2023-05-05T02:35:07.629Z,8.74
2023-05-05T02:36:09.868Z,8.17
2023-05-05T02:37:11.711Z,7.69
2023-05-05T02:38:13.506Z,7.76
2023-05-05T02:39:15.323Z,7.65
2023-05-05T02:40:17.231Z,7.60
2023-05-05T02:41:19.037Z,8.01
2023-05-05T02:42:20.855Z,7.56
2023-05-05T02:43:22.705Z,7.73
2023-05-05T02:44:24.559Z,7.52
2023-05-05T02:45:26.351Z,7.77
2023-05-05T02:46:28.189Z,7.70
2023-05-05T02:47:30.094Z,7.41
2023-05-05T02:48:31.931Z,7.29
2023-05-05T02:49:33.737Z,7.37
2023-05-05T02:50:35.664Z,8.04
2023-05-05T02:51:37.441Z,8.03
2023-05-05T02:52:39.244Z,7.73
2023-05-05T02:53:41.036Z,7.84
2023-05-05T02:54:42.868Z,7.76
2023-05-05T02:55:44.918Z,8.02
2023-05-05T02:56:46.728Z,7.56
2023-05-05T02:57:48.527Z,7.56
2023-05-05T02:58:50.321Z,7.90
2023-05-05T02:59:52.106Z,8.37
2023-05-05T03:00:53.940Z,7.73
2023-05-05T03:01:55.800Z,8.03
2023-05-05T03:02:57.776Z,7.35
2023-05-05T03:03:59.739Z,7.11
2023-05-05T03:05:01.544Z,8.37
2023-05-05T03:06:03.603Z,7.81
2023-05-05T03:07:05.390Z,8.07
2023-05-05T03:08:07.191Z,7.97
2023-05-05T03:09:08.980Z,8.05
2023-05-05T03:10:11.310Z,8.03
2023-05-05T03:11:13.282Z,9.14
2023-05-05T03:12:15.196Z,8.95
2023-05-05T03:13:16.919Z,8.74
2023-05-05T03:14:18.700Z,8.83
2023-05-05T03:15:20.511Z,8.38
2023-05-05T03:16:22.361Z,8.53
2023-05-05T03:17:24.251Z,8.09
2023-05-05T03:18:26.022Z,8.21
2023-05-05T03:19:27.809Z,8.17
2023-05-05T03:20:29.607Z,8.81
2023-05-05T03:21:31.680Z,8.54
2023-05-05T03:22:33.487Z,8.61
2023-05-05T03:23:35.277Z,8.73
2023-05-05T03:24:37.093Z,8.15
2023-05-05T03:25:38.892Z,8.61
2023-05-05T03:26:40.801Z,9.07
2023-05-05T03:27:42.595Z,8.37
2023-05-05T03:28:44.443Z,7.81
2023-05-05T03:29:46.251Z,8.29
2023-05-05T03:30:48.037Z,8.55
2023-05-05T03:31:49.964Z,8.07
2023-05-05T03:32:51.871Z,7.75
2023-05-05T03:33:53.719Z,7.45
2023-05-05T03:34:55.515Z,7.27
2023-05-05T03:35:57.305Z,8.13
2023-05-05T03:36:59.218Z,8.31
2023-05-05T03:38:01.020Z,7.89
2023-05-05T03:39:02.814Z,7.67
2023-05-05T03:40:04.783Z,7.47
2023-05-05T03:41:06.728Z,7.66
2023-05-05T03:42:08.552Z,8.14
2023-05-05T03:43:10.379Z,7.70
2023-05-05T03:44:12.170Z,7.90
2023-05-05T03:45:13.868Z,7.25
2023-05-05T03:46:15.951Z,7.11
2023-05-05T03:47:17.856Z,8.17
2023-05-05T03:48:19.865Z,7.36
2023-05-05T03:49:21.669Z,7.32
2023-05-05T03:50:23.559Z,7.12
2023-05-05T03:51:25.388Z,7.69
2023-05-05T03:52:27.290Z,8.01
2023-05-05T03:53:29.103Z,7.69
2023-05-05T03:54:30.887Z,7.81
2023-05-05T03:55:32.721Z,8.62
2023-05-05T03:56:34.524Z,8.24
2023-05-05T03:57:36.404Z,8.43
2023-05-05T03:58:38.195Z,7.56
2023-05-05T03:59:40.025Z,7.72
2023-05-05T04:00:41.910Z,7.51
2023-05-05T04:01:43.714Z,7.19
2023-05-05T04:02:45.743Z,7.31
2023-05-05T04:03:47.637Z,7.73
2023-05-05T04:04:49.811Z,6.80
2023-05-05T04:05:51.602Z,6.73
2023-05-05T04:06:53.525Z,7.03
2023-05-05T04:07:55.409Z,6.97
2023-05-05T04:08:57.216Z,7.31
2023-05-05T04:09:59.016Z,7.16
2023-05-05T04:11:00.904Z,7.22
2023-05-05T04:12:02.717Z,7.28
2023-05-05T04:13:04.611Z,7.17
2023-05-05T04:14:06.565Z,7.61
2023-05-05T04:15:08.366Z,6.81
2023-05-05T04:16:10.586Z,7.25
2023-05-05T04:17:12.390Z,7.19
2023-05-05T04:18:14.271Z,7.68
2023-05-05T04:19:16.093Z,7.27
2023-05-05T04:20:17.993Z,6.96
2023-05-05T04:21:19.809Z,7.51
2023-05-05T04:22:21.626Z,7.23
2023-05-05T04:23:23.438Z,8.18
2023-05-05T04:24:25.241Z,8.26
2023-05-05T04:25:27.040Z,8.83
2023-05-05T04:26:28.827Z,9.76
2023-05-05T04:27:30.634Z,9.29
2023-05-05T04:28:32.570Z,9.07
2023-05-05T04:29:34.371Z,9.18
2023-05-05T04:30:36.270Z,8.71
2023-05-05T04:31:38.125Z,9.63
2023-05-05T04:32:39.996Z,9.02
2023-05-05T04:33:41.821Z,10.06
2023-05-05T04:34:43.599Z,9.34
2023-05-05T04:35:45.399Z,9.85
2023-05-05T04:36:47.225Z,10.02
2023-05-05T04:37:48.919Z,9.79
2023-05-05T04:38:50.851Z,8.97
2023-05-05T04:39:52.682Z,9.51
2023-05-05T04:40:54.596Z,10.03
2023-05-05T04:41:56.401Z,9.93
2023-05-05T04:42:58.225Z,8.73
2023-05-05T04:44:00.316Z,8.97
2023-05-05T04:45:02.127Z,8.64
2023-05-05T04:46:03.922Z,8.87
2023-05-05T04:47:05.716Z,8.80
2023-05-05T04:48:07.527Z,9.59
2023-05-05T04:49:09.417Z,9.83
2023-05-05T04:50:11.557Z,10.73
2023-05-05T04:51:13.306Z,11.57
2023-05-05T04:52:15.115Z,11.63
2023-05-05T04:53:16.923Z,12.61
2023-05-05T04:54:18.841Z,11.41
2023-05-05T04:55:20.534Z,10.33
2023-05-05T04:56:22.455Z,10.29
2023-05-05T04:57:24.266Z,11.78
2023-05-05T04:58:26.073Z,12.40
2023-05-05T04:59:27.956Z,15.47
2023-05-05T05:00:29.763Z,22.38
2023-05-05T05:01:31.668Z,16.99
2023-05-05T05:02:33.733Z,15.76
2023-05-05T05:03:35.745Z,13.34
2023-05-05T05:04:37.628Z,11.06
2023-05-05T05:05:39.305Z,9.09
2023-05-05T05:06:41.212Z,8.75
2023-05-05T05:07:43.007Z,8.15
2023-05-05T05:08:44.800Z,8.07
2023-05-05T05:09:46.703Z,12.15
2023-05-05T05:10:48.541Z,9.63
2023-05-05T05:11:50.340Z,8.33
2023-05-05T05:12:52.230Z,7.59
2023-05-05T05:13:54.052Z,7.60
2023-05-05T05:14:56.045Z,7.63
2023-05-05T05:15:57.779Z,7.25
2023-05-05T05:17:00.231Z,7.58
2023-05-05T05:18:02.263Z,7.35
2023-05-05T05:19:03.982Z,6.97
2023-05-05T05:20:06.215Z,7.52
2023-05-05T05:21:08.253Z,7.50
2023-05-05T05:22:10.098Z,8.05
2023-05-05T05:23:11.857Z,8.14
2023-05-05T05:24:13.720Z,7.81
2023-05-05T05:25:15.750Z,7.75
2023-05-05T05:26:17.750Z,7.79
2023-05-05T05:27:19.552Z,8.08
2023-05-05T05:28:21.381Z,8.06
2023-05-05T05:29:23.163Z,7.85
2023-05-05T05:30:25.114Z,7.52
2023-05-05T05:31:26.941Z,7.35
2023-05-05T05:32:28.792Z,8.07
2023-05-05T05:33:30.623Z,9.92
2023-05-05T05:34:32.419Z,8.58
2023-05-05T05:35:34.348Z,8.00
2023-05-05T05:36:36.164Z,7.85
2023-05-05T05:37:37.970Z,8.04
2023-05-05T05:38:39.853Z,8.15
2023-05-05T05:39:43.476Z,8.49
2023-05-05T05:40:45.408Z,7.31
2023-05-05T05:41:47.212Z,7.39
2023-05-05T05:42:49.066Z,6.73
2023-05-05T05:43:50.862Z,5.33
2023-05-05T05:44:52.658Z,5.01
2023-05-05T05:45:54.651Z,5.11
2023-05-05T05:46:56.487Z,5.52
2023-05-05T05:47:58.318Z,4.77
2023-05-05T05:49:00.176Z,4.75
2023-05-05T05:50:02.025Z,5.09
2023-05-05T05:51:03.854Z,5.51
2023-05-05T05:52:05.656Z,5.38
2023-05-05T05:53:07.463Z,4.94
2023-05-05T05:54:09.261Z,4.35
2023-05-05T05:55:11.057Z,4.63
2023-05-05T05:56:13.856Z,4.64
2023-05-05T05:57:15.739Z,5.12
2023-05-05T05:58:17.604Z,5.03
2023-05-05T05:59:19.403Z,4.29
2023-05-05T06:00:21.200Z,4.71
2023-05-05T06:01:22.997Z,5.37
2023-05-05T06:02:24.872Z,5.68
2023-05-05T06:03:26.942Z,4.75
2023-05-05T06:04:28.996Z,5.13
2023-05-05T06:05:30.994Z,6.43
2023-05-05T06:06:32.874Z,5.63
2023-05-05T06:07:34.650Z,6.23
2023-05-05T06:08:36.451Z,6.32
2023-05-05T06:09:38.257Z,6.16
2023-05-05T06:10:40.104Z,5.44
2023-05-05T06:11:42.098Z,5.25
2023-05-05T06:12:43.935Z,5.23
2023-05-05T06:13:45.787Z,4.71
2023-05-05T06:14:47.569Z,4.10
2023-05-05T06:15:49.510Z,4.18
2023-05-05T06:16:52.049Z,4.39
2023-05-05T06:17:53.787Z,4.94
2023-05-05T06:18:55.749Z,4.00
2023-05-05T06:19:57.548Z,4.63
2023-05-05T06:20:59.344Z,4.55
2023-05-05T06:22:01.162Z,4.21
2023-05-05T06:23:03.096Z,4.82
2023-05-05T06:24:04.880Z,4.97
2023-05-05T06:25:06.680Z,4.27
2023-05-05T06:26:08.766Z,4.23
2023-05-05T06:27:10.610Z,4.76
2023-05-05T06:28:12.395Z,4.74
2023-05-05T06:29:14.219Z,4.08
2023-05-05T06:30:16.125Z,3.67
2023-05-05T06:31:17.949Z,4.29
2023-05-05T06:32:21.578Z,3.49
2023-05-05T06:33:23.417Z,3.46
2023-05-05T06:34:25.178Z,3.67
2023-05-05T06:35:26.976Z,3.53
2023-05-05T06:36:28.819Z,3.19
2023-05-05T06:37:30.612Z,8.74
2023-05-05T06:38:32.440Z,11.26
2023-05-05T06:39:34.243Z,6.11
2023-05-05T06:40:36.053Z,6.55
2023-05-05T06:41:37.839Z,5.49
2023-05-05T06:42:43.406Z,4.43
2023-05-05T06:43:45.249Z,4.44
2023-05-05T06:44:47.038Z,4.65
2023-05-05T06:45:48.856Z,3.96
2023-05-05T06:46:50.796Z,5.13
2023-05-05T06:47:52.671Z,4.79
2023-05-05T06:48:54.603Z,4.93
2023-05-05T06:49:56.511Z,5.11
2023-05-05T06:50:58.303Z,4.71
2023-05-05T06:52:00.148Z,4.24
2023-05-05T06:53:02.080Z,4.47
2023-05-05T06:54:03.891Z,3.39
2023-05-05T06:55:05.689Z,3.51
2023-05-05T06:56:07.688Z,3.81
2023-05-05T06:57:09.383Z,3.66
2023-05-05T06:58:11.210Z,3.55
2023-05-05T06:59:13.011Z,3.88
2023-05-05T07:00:15.100Z,3.64
2023-05-05T07:01:16.948Z,3.85
2023-05-05T07:02:18.706Z,4.04
2023-05-05T07:03:20.680Z,3.91
2023-05-05T07:04:22.556Z,3.97
2023-05-05T07:05:24.382Z,3.98
2023-05-05T07:06:26.500Z,4.99
2023-05-05T07:07:28.308Z,4.81
2023-05-05T07:08:30.160Z,5.08
2023-05-05T07:09:31.864Z,4.65
2023-05-05T07:10:33.691Z,5.77
2023-05-05T07:11:35.479Z,7.67
2023-05-05T07:12:37.343Z,7.99
2023-05-05T07:13:39.221Z,7.87
2023-05-05T07:14:41.017Z,6.58
2023-05-05T07:15:42.822Z,6.07
2023-05-05T07:16:44.633Z,4.47
2023-05-05T07:17:46.553Z,4.97
2023-05-05T07:18:48.450Z,4.19
2023-05-05T07:19:50.259Z,4.56
2023-05-05T07:20:52.153Z,4.34
2023-05-05T07:21:53.946Z,4.63
2023-05-05T07:22:55.923Z,4.96
2023-05-05T07:23:57.667Z,4.81
2023-05-05T07:24:59.453Z,4.61
2023-05-05T07:26:01.257Z,4.05
2023-05-05T07:27:03.069Z,4.59
2023-05-05T07:28:04.890Z,5.36
2023-05-05T07:29:06.719Z,4.75
2023-05-05T07:30:12.425Z,4.39
2023-05-05T07:31:12.740Z,4.68
2023-05-05T07:32:14.644Z,4.07
2023-05-05T07:33:16.421Z,4.05
2023-05-05T07:34:18.293Z,4.42
2023-05-05T07:35:20.064Z,4.07
2023-05-05T07:36:21.852Z,3.91
2023-05-05T07:37:23.654Z,3.73
2023-05-05T07:38:25.442Z,3.73
2023-05-05T07:39:27.298Z,3.99
2023-05-05T07:40:29.188Z,3.84
2023-05-05T07:41:31.026Z,4.03
2023-05-05T07:42:32.817Z,3.57
2023-05-05T07:43:34.669Z,4.24
2023-05-05T07:44:36.500Z,3.71
2023-05-05T07:45:38.567Z,3.77
2023-05-05T07:46:40.747Z,3.89
2023-05-05T07:47:42.560Z,4.19
2023-05-05T07:48:44.427Z,4.29
2023-05-05T07:49:46.270Z,3.69
2023-05-05T07:50:48.083Z,3.86
2023-05-05T07:51:49.861Z,3.93
2023-05-05T07:52:56.337Z,3.95
2023-05-05T07:53:55.167Z,3.54
2023-05-05T07:54:57.014Z,3.45
2023-05-05T07:55:58.833Z,2.87
2023-05-05T07:57:00.624Z,3.34
2023-05-05T07:58:02.413Z,3.66
2023-05-05T07:59:04.208Z,4.22
2023-05-05T08:00:06.603Z,3.47
2023-05-05T08:01:08.784Z,3.41
2023-05-05T08:02:10.649Z,4.14
2023-05-05T08:03:12.599Z,4.00
2023-05-05T08:04:14.629Z,4.05
2023-05-05T08:05:16.573Z,5.61
2023-05-05T08:06:18.340Z,4.32
2023-05-05T08:07:20.065Z,3.56
2023-05-05T08:08:21.857Z,3.71
2023-05-05T08:09:23.662Z,3.47
2023-05-05T08:10:25.609Z,3.39
2023-05-05T08:11:29.548Z,2.70
2023-05-05T08:12:31.033Z,2.76
2023-05-05T08:13:32.822Z,2.86
2023-05-05T08:14:34.629Z,2.53
2023-05-05T08:15:36.463Z,3.35
2023-05-05T08:16:38.265Z,2.99
2023-05-05T08:17:40.165Z,2.73
2023-05-05T08:18:42.011Z,2.95
2023-05-05T08:19:43.823Z,3.03
2023-05-05T08:20:45.649Z,2.72
2023-05-05T08:21:47.449Z,2.87
2023-05-05T08:22:49.262Z,3.39
2023-05-05T08:23:51.059Z,2.88
2023-05-05T08:24:52.767Z,2.65
2023-05-05T08:25:54.611Z,3.79
2023-05-05T08:26:56.522Z,2.82
2023-05-05T08:27:58.525Z,2.86
2023-05-05T08:29:00.351Z,2.43
2023-05-05T08:30:02.137Z,2.61
2023-05-05T08:31:04.176Z,2.93
2023-05-05T08:32:06.366Z,2.77
2023-05-05T08:33:08.210Z,3.47
2023-05-05T08:34:10.051Z,2.89
2023-05-05T08:35:12.324Z,3.07
2023-05-05T08:36:14.622Z,2.89
2023-05-05T08:37:16.437Z,2.58
2023-05-05T08:38:18.238Z,2.89
2023-05-05T08:39:20.057Z,2.84
2023-05-05T08:40:21.848Z,2.91
2023-05-05T08:41:23.689Z,2.48
2023-05-05T08:42:36.289Z,2.57
2023-05-05T08:43:29.089Z,2.55
2023-05-05T08:44:30.890Z,2.43
2023-05-05T08:45:32.689Z,2.33
2023-05-05T08:46:34.560Z,2.16
2023-05-05T08:47:36.403Z,2.34
2023-05-05T08:48:38.262Z,2.30
2023-05-05T08:49:40.066Z,1.99
2023-05-05T08:50:41.871Z,2.13
2023-05-05T08:51:43.698Z,2.47
2023-05-05T08:52:45.708Z,10.28
2023-05-05T08:53:47.694Z,6.05
2023-05-05T08:54:50.723Z,5.99
2023-05-05T08:55:52.573Z,4.66
2023-05-05T08:56:54.395Z,2.23
2023-05-05T08:57:56.253Z,2.55
2023-05-05T08:58:58.444Z,1.85
2023-05-05T09:00:00.269Z,2.13
2023-05-05T09:01:02.113Z,1.97
2023-05-05T09:02:03.973Z,1.71
2023-05-05T09:03:05.968Z,1.85
2023-05-05T09:04:07.947Z,2.40
2023-05-05T09:05:10.045Z,1.92
2023-05-05T09:06:12.302Z,2.09
2023-05-05T09:07:14.136Z,1.81
2023-05-05T09:08:15.915Z,2.12
2023-05-05T09:09:17.719Z,1.88
2023-05-05T09:10:19.553Z,1.85
2023-05-05T09:11:21.339Z,2.13
2023-05-05T09:12:23.198Z,2.13
2023-05-05T09:13:24.977Z,1.66
2023-05-05T09:14:26.784Z,2.02
2023-05-05T09:15:28.619Z,2.49
2023-05-05T09:16:30.577Z,1.81
2023-05-05T09:17:32.426Z,1.82
2023-05-05T09:18:34.292Z,2.03
2023-05-05T09:19:36.106Z,1.65
2023-05-05T09:20:37.898Z,1.64
2023-05-05T09:21:39.861Z,1.87
2023-05-05T09:22:41.599Z,2.09
2023-05-05T09:23:43.399Z,1.57
2023-05-05T09:24:45.206Z,2.00
2023-05-05T09:25:47.035Z,1.74
2023-05-05T09:26:48.916Z,1.79
2023-05-05T09:27:50.763Z,1.86
2023-05-05T09:28:52.578Z,1.62
2023-05-05T09:29:54.382Z,1.83
2023-05-05T09:30:56.314Z,1.82
2023-05-05T09:31:58.177Z,1.56
2023-05-05T09:33:00.066Z,1.87
2023-05-05T09:34:01.859Z,1.65
2023-05-05T09:35:03.650Z,1.74
2023-05-05T09:36:05.549Z,1.95
2023-05-05T09:37:07.364Z,1.89
2023-05-05T09:38:09.201Z,1.72
2023-05-05T09:39:11.016Z,1.89
2023-05-05T09:40:13.524Z,3.56
2023-05-05T09:41:15.343Z,2.84
2023-05-05T09:42:17.148Z,2.36
2023-05-05T09:43:19.036Z,2.44
2023-05-05T09:44:20.849Z,1.61
2023-05-05T09:45:22.664Z,1.28
2023-05-05T09:46:24.480Z,1.65
2023-05-05T09:47:29.520Z,2.17
2023-05-05T09:48:29.939Z,15.90
2023-05-05T09:49:31.901Z,17.53
2023-05-05T09:50:33.795Z,18.78
2023-05-05T09:51:35.594Z,20.15
2023-05-05T09:52:37.395Z,18.54
2023-05-05T09:53:39.240Z,20.86
2023-05-05T09:54:41.079Z,21.84
2023-05-05T09:55:42.774Z,21.15
2023-05-05T09:56:44.573Z,19.63
2023-05-05T09:57:46.276Z,20.08
2023-05-05T09:58:48.195Z,14.45
2023-05-05T09:59:50.039Z,19.20
2023-05-05T10:00:51.829Z,19.32
2023-05-05T10:01:53.693Z,19.13
2023-05-05T10:02:55.723Z,18.05
2023-05-05T10:03:57.596Z,15.24
2023-05-05T10:05:01.542Z,17.94
2023-05-05T10:06:02.996Z,18.11
2023-05-05T10:07:04.833Z,17.63
2023-05-05T10:08:06.621Z,16.36
2023-05-05T10:09:08.475Z,17.50
2023-05-05T10:10:10.595Z,16.59
2023-05-05T10:11:12.598Z,16.83
2023-05-05T10:12:14.373Z,17.36
2023-05-05T10:13:16.256Z,15.17
2023-05-05T10:14:18.145Z,15.90
2023-05-05T10:15:19.974Z,16.09
2023-05-05T10:16:21.819Z,11.26
2023-05-05T10:17:23.768Z,16.47
2023-05-05T10:18:25.765Z,16.67
2023-05-05T10:19:27.643Z,16.41
2023-05-05T10:20:29.544Z,16.38
2023-05-05T10:21:31.346Z,16.43
2023-05-05T10:22:33.153Z,16.60
2023-05-05T10:23:34.999Z,16.09
2023-05-05T10:24:36.992Z,15.21
2023-05-05T10:25:38.796Z,15.05
2023-05-05T10:26:42.423Z,15.42
2023-05-05T10:27:44.233Z,15.65
2023-05-05T10:28:46.072Z,15.46
2023-05-05T10:29:47.890Z,15.21
2023-05-05T10:30:49.690Z,14.73
2023-05-05T10:31:51.530Z,14.95
2023-05-05T10:33:07.991Z,15.79
2023-05-05T10:33:57.265Z,15.07
2023-05-05T10:34:59.160Z,14.58
2023-05-05T10:36:00.958Z,15.44
2023-05-05T10:37:02.752Z,15.62
2023-05-05T10:38:04.556Z,15.49
2023-05-05T10:39:06.372Z,16.04
2023-05-05T10:40:09.049Z,15.49
2023-05-05T10:41:11.006Z,15.53
2023-05-05T10:42:12.792Z,15.31
2023-05-05T10:43:14.588Z,14.94
2023-05-05T10:44:16.396Z,16.18
2023-05-05T10:45:18.157Z,15.89
2023-05-05T10:46:20.039Z,15.17
2023-05-05T10:47:21.935Z,13.53
2023-05-05T10:48:23.839Z,15.09
2023-05-05T10:49:25.641Z,13.89
2023-05-05T10:50:27.466Z,14.90
2023-05-05T10:51:39.431Z,14.44
2023-05-05T10:52:32.775Z,14.24
2023-05-05T10:53:34.553Z,14.36
2023-05-05T10:54:37.800Z,14.08
2023-05-05T10:55:39.991Z,13.81
2023-05-05T10:56:41.816Z,14.17
2023-05-05T10:57:43.609Z,14.46
2023-05-05T10:58:59.007Z,14.11
2023-05-05T10:59:49.010Z,14.05
2023-05-05T11:00:50.870Z,13.84
2023-05-05T11:01:52.648Z,13.74
2023-05-05T11:02:54.495Z,12.90
2023-05-05T11:03:56.379Z,13.01
2023-05-05T11:04:58.245Z,12.99
2023-05-05T11:06:00.067Z,12.99
2023-05-05T11:07:01.876Z,13.26
2023-05-05T11:08:03.575Z,13.96
2023-05-05T11:09:05.369Z,5.97
2023-05-05T11:10:07.804Z,12.53
2023-05-05T11:11:10.139Z,12.33
2023-05-05T11:12:11.990Z,12.33
2023-05-05T11:13:13.874Z,12.73
2023-05-05T11:24:58.754Z,12.25
2023-05-05T11:26:00.565Z,11.84
2023-05-05T11:27:02.359Z,9.44
2023-05-05T11:28:04.155Z,7.57
2023-05-05T11:29:06.071Z,11.59
2023-05-05T11:30:08.449Z,11.49
2023-05-05T11:31:10.581Z,10.90
2023-05-05T11:32:12.394Z,11.81
2023-05-05T11:33:14.153Z,11.66
2023-05-05T11:34:15.979Z,11.56
2023-05-05T11:35:17.803Z,11.01
2023-05-05T11:36:19.600Z,11.23
2023-05-05T11:37:21.392Z,10.57
2023-05-05T11:38:23.200Z,10.98
2023-05-05T11:39:25.003Z,11.36
2023-05-05T11:40:26.898Z,10.47
2023-05-05T11:41:28.689Z,11.27
2023-05-05T11:42:30.569Z,11.08
2023-05-05T11:43:32.383Z,10.11
2023-05-05T11:44:34.229Z,8.93
2023-05-05T11:45:36.054Z,10.08
2023-05-05T11:46:37.925Z,10.62
2023-05-05T11:47:39.759Z,9.75
2023-05-05T11:48:41.953Z,7.59
2023-05-05T11:49:43.798Z,9.15
2023-05-05T11:50:45.588Z,8.61
2023-05-05T11:51:47.398Z,10.04
2023-05-05T11:52:49.203Z,10.03
2023-05-05T11:53:51.024Z,9.55
2023-05-05T11:54:52.831Z,10.17
2023-05-05T11:55:54.615Z,9.36
2023-05-05T11:56:56.430Z,9.28
2023-05-05T11:57:58.216Z,7.97
2023-05-05T11:59:00.014Z,9.73
2023-05-05T12:00:01.979Z,9.42
2023-05-05T12:01:03.750Z,9.37
2023-05-05T12:02:05.548Z,8.89
2023-05-05T12:03:07.466Z,9.43
2023-05-05T12:04:09.662Z,9.73
2023-05-05T12:05:11.647Z,9.34
2023-05-05T12:06:14.558Z,8.89
2023-05-05T12:07:16.346Z,8.54
2023-05-05T12:08:18.158Z,9.39
2023-05-05T12:09:19.871Z,8.79
2023-05-05T12:10:22.121Z,9.01
2023-05-05T12:11:23.901Z,8.97
2023-05-05T12:12:25.703Z,8.59
2023-05-05T12:13:27.559Z,8.61
2023-05-05T12:14:29.393Z,8.96
2023-05-05T12:15:31.654Z,8.20
2023-05-05T12:16:33.648Z,8.33
2023-05-05T12:17:35.431Z,7.98
2023-05-05T12:18:37.214Z,8.57
2023-05-05T12:19:39.025Z,8.37
2023-05-05T12:20:40.862Z,8.09
2023-05-05T12:21:42.661Z,8.12
2023-05-05T12:22:44.462Z,8.81
2023-05-05T12:23:46.292Z,8.37
2023-05-05T12:24:48.099Z,7.79
2023-05-05T12:25:49.941Z,8.05
2023-05-05T12:26:51.724Z,7.78
2023-05-05T12:27:53.511Z,7.64
2023-05-05T12:28:55.568Z,7.63
2023-05-05T12:29:57.461Z,8.48
2023-05-05T12:30:59.689Z,8.19
2023-05-05T12:32:01.555Z,7.93
2023-05-05T12:33:03.520Z,7.30
2023-05-05T12:34:05.293Z,8.19
2023-05-05T12:35:07.119Z,7.84
2023-05-05T12:36:09.140Z,7.71
2023-05-05T12:37:10.936Z,7.73
2023-05-05T12:38:12.837Z,7.77
2023-05-05T12:39:14.625Z,7.60
2023-05-05T12:40:16.718Z,7.65
2023-05-05T12:41:18.473Z,7.31
2023-05-05T12:42:20.395Z,7.22
2023-05-05T12:43:22.813Z,7.32
2023-05-05T12:44:24.607Z,7.01
2023-05-05T12:45:26.402Z,7.21
2023-05-05T12:46:28.782Z,5.82
2023-05-05T12:47:30.677Z,7.44
2023-05-05T12:48:32.434Z,7.61
2023-05-05T12:49:34.238Z,7.09
2023-05-05T12:50:36.028Z,7.27
2023-05-05T12:51:37.908Z,7.11
2023-05-05T12:52:39.734Z,7.17
2023-05-05T12:53:41.544Z,7.59
2023-05-05T12:54:43.329Z,7.27
2023-05-05T12:55:45.128Z,7.77
2023-05-05T12:56:46.949Z,6.86
2023-05-05T12:57:48.761Z,7.55
2023-05-05T12:58:50.573Z,7.45
2023-05-05T12:59:52.363Z,7.74
2023-05-05T13:00:55.176Z,7.21
2023-05-05T13:01:57.203Z,8.00
2023-05-05T13:02:59.252Z,7.69
2023-05-05T13:04:01.049Z,8.31
2023-05-05T13:05:02.832Z,7.49
2023-05-05T13:06:04.843Z,7.79
2023-05-05T13:07:06.638Z,7.48
2023-05-05T13:08:08.422Z,7.10
2023-05-05T13:09:10.293Z,7.00
2023-05-05T13:10:12.621Z,6.83
2023-05-05T13:11:14.439Z,7.25
2023-05-05T13:12:16.252Z,7.17
2023-05-05T13:13:17.986Z,7.35
2023-05-05T13:14:19.837Z,6.99
2023-05-05T13:15:21.528Z,6.81
2023-05-05T13:16:23.520Z,6.87
2023-05-05T13:17:25.486Z,7.07
2023-05-05T13:18:27.268Z,6.41
2023-05-05T13:19:29.054Z,6.86
2023-05-05T13:20:31.253Z,7.14
2023-05-05T13:21:33.058Z,6.27
2023-05-05T13:22:34.873Z,6.85
2023-05-05T13:23:36.707Z,6.73
2023-05-05T13:24:51.042Z,6.69
2023-05-05T13:25:42.111Z,6.68
2023-05-05T13:26:43.907Z,7.23
2023-05-05T13:27:45.731Z,6.85
2023-05-05T13:28:47.515Z,7.36
2023-05-05T13:29:49.311Z,7.33
2023-05-05T13:30:51.103Z,7.70
2023-05-05T13:31:52.914Z,7.27
2023-05-05T13:32:54.878Z,7.66
2023-05-05T13:33:56.721Z,7.36
2023-05-05T13:34:58.514Z,7.60
2023-05-05T13:36:00.233Z,7.41
2023-05-05T13:37:02.054Z,7.39
2023-05-05T13:38:03.885Z,7.50
2023-05-05T13:39:05.674Z,7.28
2023-05-05T13:40:07.689Z,6.62
2023-05-05T13:41:09.513Z,7.34
2023-05-05T13:42:11.334Z,7.21
2023-05-05T13:43:13.193Z,7.44
2023-05-05T13:44:15.395Z,7.61
2023-05-05T13:45:17.207Z,9.72
2023-05-05T13:46:20.346Z,9.18
2023-05-05T13:47:22.507Z,9.56
2023-05-05T13:48:24.501Z,9.83
2023-05-05T13:49:26.278Z,10.68